createdAt,value
2019-02-21T00:00:26.633Z,35.40
2019-02-21T00:02:53.538Z,33.27
2019-02-21T00:05:20.364Z,34.80
2019-02-21T00:07:47.027Z,35.97
2019-02-21T00:10:13.644Z,28.60
2019-02-21T00:12:40.806Z,29.70
2019-02-21T00:15:07.714Z,36.27
2019-02-21T00:17:34.670Z,32.20
2019-02-21T00:20:01.836Z,31.42
2019-02-21T00:22:29.747Z,32.73
2019-02-21T00:24:56.683Z,31.37
2019-02-21T00:27:24.048Z,31.68
2019-02-21T00:29:50.765Z,31.90
2019-02-21T00:32:17.722Z,32.90
2019-02-21T00:34:46.136Z,29.44
2019-02-21T00:37:12.731Z,33.40
2019-02-21T00:39:39.361Z,28.23
2019-02-21T00:42:05.966Z,34.00
2019-02-21T00:44:32.958Z,32.43
2019-02-21T00:46:59.801Z,31.87
2019-02-21T00:49:26.426Z,36.13
2019-02-21T00:51:53.318Z,33.73
2019-02-21T00:54:20.086Z,30.75
2019-02-21T00:56:47.026Z,35.20
2019-02-21T00:59:13.671Z,35.67
2019-02-21T01:01:41.140Z,27.00
2019-02-21T01:04:07.782Z,33.63
2019-02-21T01:06:34.501Z,33.00
2019-02-21T01:09:01.604Z,32.83
2019-02-21T01:11:28.213Z,33.00
2019-02-21T01:13:55.320Z,33.23
2019-02-21T01:16:22.410Z,31.68
2019-02-21T01:18:49.350Z,31.77
2019-02-21T01:21:15.958Z,31.40
2019-02-21T01:23:43.045Z,26.90
2019-02-21T01:26:09.805Z,30.67
2019-02-21T01:28:36.473Z,29.73
2019-02-21T01:31:03.137Z,31.40
2019-02-21T01:33:30.497Z,31.65
2019-02-21T01:35:57.142Z,33.87
2019-02-21T01:38:23.769Z,28.37
2019-02-21T01:40:51.547Z,32.73
2019-02-21T01:43:18.392Z,30.80
2019-02-21T01:45:44.964Z,29.77
2019-02-21T01:48:13.161Z,34.30
2019-02-21T01:50:40.019Z,30.73
2019-02-21T01:53:06.934Z,34.30
2019-02-21T01:55:33.628Z,30.83
2019-02-21T01:58:00.288Z,31.40
2019-02-21T02:00:27.375Z,27.62
2019-02-21T02:02:54.267Z,28.87
2019-02-21T02:05:20.885Z,31.13
2019-02-21T02:07:47.545Z,29.92
2019-02-21T02:10:14.186Z,33.67
2019-02-21T02:12:40.771Z,28.70
2019-02-21T02:15:07.466Z,30.17
2019-02-21T02:17:34.134Z,30.10
2019-02-21T02:20:01.013Z,33.27
2019-02-21T02:22:27.753Z,35.10
2019-02-21T02:24:54.471Z,35.93
2019-02-21T02:27:21.433Z,29.03
2019-02-21T02:29:48.348Z,34.73
2019-02-21T02:32:15.048Z,31.37
2019-02-21T02:34:41.650Z,38.03
2019-02-21T02:37:08.515Z,30.30
2019-02-21T02:39:35.168Z,31.05
2019-02-21T02:42:01.794Z,30.45
2019-02-21T02:44:28.570Z,30.63
2019-02-21T02:49:29.049Z,28.43
2019-02-21T02:51:56.006Z,32.07
2019-02-21T02:54:22.917Z,34.13
2019-02-21T02:56:50.239Z,33.98
2019-02-21T02:59:17.759Z,31.43
2019-02-21T03:01:45.701Z,39.05
2019-02-21T03:04:12.723Z,36.40
2019-02-21T03:06:39.386Z,29.07
2019-02-21T03:09:06.176Z,28.97
2019-02-21T03:11:32.883Z,33.73
2019-02-21T03:13:59.835Z,37.67
2019-02-21T03:16:27.107Z,35.33
2019-02-21T03:18:53.759Z,35.57
2019-02-21T03:21:21.192Z,36.33
2019-02-21T03:23:48.190Z,30.87
2019-02-21T03:26:16.303Z,33.45
2019-02-21T03:28:43.027Z,28.83
2019-02-21T03:31:10.074Z,37.03
2019-02-21T03:33:36.745Z,38.07
2019-02-21T03:36:03.595Z,33.05
2019-02-21T03:38:34.849Z,28.67
2019-02-21T03:40:59.431Z,30.33
2019-02-21T03:43:26.114Z,32.13
2019-02-21T03:45:53.929Z,31.43
2019-02-21T03:48:20.793Z,28.10
2019-02-21T03:50:47.726Z,28.80
2019-02-21T03:53:16.157Z,30.04
2019-02-21T03:55:42.872Z,31.00
2019-02-21T03:58:09.839Z,35.27
2019-02-21T04:00:36.467Z,31.23
2019-02-21T04:03:03.858Z,29.50
2019-02-21T04:05:30.549Z,31.67
2019-02-21T04:07:57.265Z,33.90
2019-02-21T04:10:24.402Z,32.87
2019-02-21T04:12:51.382Z,28.40
2019-02-21T04:15:18.375Z,28.30
2019-02-21T04:17:46.747Z,28.95
2019-02-21T04:20:13.460Z,28.27
2019-02-21T04:22:40.459Z,27.90
2019-02-21T04:25:08.142Z,29.35
2019-02-21T04:27:34.735Z,29.25
2019-02-21T04:30:01.805Z,26.57
2019-02-21T04:32:28.715Z,30.10
2019-02-21T04:34:55.665Z,31.40
2019-02-21T04:37:22.695Z,31.87
2019-02-21T04:39:49.615Z,36.70
2019-02-21T04:42:16.923Z,33.60
2019-02-21T04:47:10.801Z,26.60
2019-02-21T04:49:37.634Z,31.80
2019-02-21T04:52:05.195Z,30.30
2019-02-21T04:56:58.960Z,32.58
2019-02-21T04:59:26.101Z,28.35
2019-02-21T05:01:53.077Z,34.65
2019-02-21T05:04:20.001Z,37.83
2019-02-21T05:06:47.312Z,29.45
2019-02-21T05:09:14.018Z,34.40
2019-02-21T05:11:40.962Z,33.63
2019-02-21T05:14:07.609Z,27.65
2019-02-21T05:16:34.231Z,33.10
2019-02-21T05:19:00.993Z,32.40
2019-02-21T05:21:27.657Z,36.55
2019-02-21T05:23:54.331Z,36.00
2019-02-21T05:26:22.714Z,35.10
2019-02-21T05:28:49.330Z,25.87
2019-02-21T05:31:17.534Z,31.40
2019-02-21T05:33:44.265Z,27.95
2019-02-21T05:36:10.829Z,28.85
2019-02-21T05:38:37.460Z,33.67
2019-02-21T05:41:04.600Z,30.97
2019-02-21T05:43:31.752Z,31.00
2019-02-21T05:45:58.405Z,33.27
2019-02-21T05:48:25.776Z,33.35
2019-02-21T05:50:52.498Z,29.40
2019-02-21T05:53:19.676Z,33.42
2019-02-21T05:55:47.899Z,34.40
2019-02-21T05:58:14.503Z,42.10
2019-02-21T06:00:41.220Z,39.50
2019-02-21T06:03:07.895Z,45.00
2019-02-21T06:05:34.693Z,39.15
2019-02-21T06:08:01.304Z,38.30
2019-02-21T06:10:27.889Z,38.30
2019-02-21T06:12:54.690Z,27.25
2019-02-21T06:15:21.326Z,29.87
2019-02-21T06:17:48.386Z,30.30
2019-02-21T06:20:17.706Z,34.83
2019-02-21T06:22:43.377Z,33.20
2019-02-21T06:25:10.006Z,33.03
2019-02-21T06:27:38.119Z,27.53
2019-02-21T06:30:06.165Z,25.23
2019-02-21T06:32:32.791Z,27.13
2019-02-21T06:35:02.410Z,36.57
2019-02-21T06:37:28.736Z,30.40
2019-02-21T06:39:55.575Z,30.55
2019-02-21T06:42:23.284Z,40.50
2019-02-21T06:44:50.929Z,40.23
2019-02-21T06:47:21.257Z,38.48
2019-02-21T06:49:50.767Z,39.40
2019-02-21T06:52:18.711Z,36.68
2019-02-21T06:54:45.558Z,29.40
2019-02-21T06:57:12.735Z,33.20
2019-02-21T06:59:45.670Z,32.20
2019-02-21T07:02:13.615Z,31.13
2019-02-21T07:04:43.063Z,34.83
2019-02-21T07:07:12.151Z,32.30
2019-02-21T07:09:42.854Z,33.73
2019-02-21T07:12:13.505Z,33.70
2019-02-21T07:14:40.125Z,29.83
2019-02-21T07:17:08.652Z,34.40
2019-02-21T07:19:40.379Z,25.30
2019-02-21T07:22:07.798Z,26.43
2019-02-21T07:24:38.316Z,26.50
2019-02-21T07:27:10.204Z,29.70
2019-02-21T07:29:38.826Z,28.77
2019-02-21T07:32:06.944Z,24.97
2019-02-21T07:34:34.861Z,25.97
2019-02-21T07:37:17.738Z,36.80
2019-02-21T07:39:36.305Z,27.83
2019-02-21T07:42:07.292Z,30.67
2019-02-21T07:44:34.146Z,33.27
2019-02-21T07:47:01.372Z,30.73
2019-02-21T07:49:32.104Z,28.27
2019-02-21T07:52:01.575Z,32.60
2019-02-21T07:54:31.493Z,30.57
2019-02-21T07:57:01.976Z,36.25
2019-02-21T07:59:29.454Z,33.42
2019-02-21T08:01:56.384Z,35.77
2019-02-21T08:04:23.533Z,32.03
2019-02-21T08:06:50.433Z,34.30
2019-02-21T08:09:18.936Z,28.60
2019-02-21T08:11:45.638Z,26.03
2019-02-21T08:14:12.539Z,28.80
2019-02-21T08:16:39.420Z,31.82
2019-02-21T08:19:06.051Z,26.33
2019-02-21T08:21:32.666Z,25.20
2019-02-21T08:24:00.005Z,27.30
2019-02-21T08:26:26.731Z,33.90
2019-02-21T08:28:53.418Z,30.77
2019-02-21T08:31:20.297Z,26.83
2019-02-21T08:33:57.650Z,29.07
2019-02-21T08:36:15.262Z,27.33
2019-02-21T08:38:42.018Z,30.30
2019-02-21T08:41:08.982Z,27.60
2019-02-21T08:43:37.327Z,24.72
2019-02-21T08:46:03.979Z,26.17
2019-02-21T08:48:30.585Z,28.60
2019-02-21T08:50:57.578Z,34.30
2019-02-21T08:53:24.331Z,34.90
2019-02-21T08:55:51.236Z,31.87
2019-02-21T08:58:18.141Z,30.83
2019-02-21T09:00:44.780Z,28.87
2019-02-21T09:03:11.418Z,35.67
2019-02-21T09:05:38.622Z,33.30
2019-02-21T09:08:05.626Z,32.73
2019-02-21T09:10:32.746Z,30.40
2019-02-21T09:12:59.391Z,31.97
2019-02-21T09:15:26.267Z,33.85
2019-02-21T09:17:54.196Z,32.93
2019-02-21T09:20:21.414Z,29.18
2019-02-21T09:22:48.108Z,32.30
2019-02-21T09:25:15.476Z,31.93
2019-02-21T09:27:42.170Z,27.13
2019-02-21T09:30:08.915Z,33.85
2019-02-21T09:32:35.806Z,31.83
2019-02-21T09:35:02.659Z,33.03
2019-02-21T09:37:29.346Z,35.75
2019-02-21T09:39:56.292Z,30.93
2019-02-21T09:42:23.011Z,30.67
2019-02-21T09:44:51.069Z,28.42
2019-02-21T09:47:17.729Z,30.27
2019-02-21T09:49:44.352Z,34.07
2019-02-21T09:52:10.979Z,33.50
2019-02-21T09:54:37.917Z,33.20
2019-02-21T09:57:12.726Z,31.43
2019-02-21T09:59:33.204Z,29.90
2019-02-21T10:01:59.883Z,30.07
2019-02-21T10:04:32.188Z,33.17
2019-02-21T10:06:54.941Z,34.90
2019-02-21T10:09:21.699Z,30.87
2019-02-21T10:11:48.508Z,31.53
2019-02-21T10:14:15.120Z,34.37
2019-02-21T10:16:41.686Z,30.90
2019-02-21T10:19:08.296Z,34.50
2019-02-21T10:21:35.494Z,33.80
2019-02-21T10:24:02.459Z,37.30
2019-02-21T10:26:29.560Z,40.17
2019-02-21T10:28:56.623Z,38.30
2019-02-21T10:31:23.762Z,37.77
2019-02-21T10:33:52.054Z,37.70
2019-02-21T10:36:18.656Z,34.97
2019-02-21T10:38:45.477Z,33.87
2019-02-21T10:41:12.148Z,31.77
2019-02-21T10:43:39.148Z,41.20
2019-02-21T10:46:05.751Z,33.67
2019-02-21T10:48:32.671Z,38.53
2019-02-21T10:51:01.574Z,33.80
2019-02-21T10:53:28.572Z,37.55
2019-02-21T10:55:55.821Z,38.17
2019-02-21T10:58:23.152Z,40.15
2019-02-21T11:00:49.895Z,42.40
2019-02-21T11:03:17.087Z,37.60
2019-02-21T11:05:45.284Z,36.23
2019-02-21T11:08:14.456Z,33.83
2019-02-21T11:10:45.696Z,37.30
2019-02-21T11:13:17.290Z,42.87
2019-02-21T11:15:44.952Z,34.20
2019-02-21T11:18:12.671Z,35.40
2019-02-21T11:20:40.547Z,36.97
2019-02-21T11:23:08.725Z,38.28
2019-02-21T11:25:35.985Z,36.98
2019-02-21T11:28:05.649Z,32.37
2019-02-21T11:30:35.895Z,34.23
2019-02-21T11:33:04.245Z,33.53
2019-02-21T11:35:31.669Z,32.50
2019-02-21T11:37:59.442Z,34.87
2019-02-21T11:40:28.309Z,31.10
2019-02-21T11:42:57.920Z,30.87
2019-02-21T11:45:27.783Z,34.53
2019-02-21T11:47:57.139Z,35.10
2019-02-21T11:50:29.203Z,35.73
2019-02-21T11:52:56.936Z,33.80
2019-02-21T11:55:25.004Z,28.97
2019-02-21T11:57:53.030Z,33.73
2019-02-21T12:00:25.189Z,30.37
2019-02-21T12:02:53.381Z,32.17
2019-02-21T12:05:30.590Z,34.03
2019-02-21T12:07:48.332Z,34.50
2019-02-21T12:10:14.966Z,25.10
2019-02-21T12:12:41.853Z,26.00
2019-02-21T12:15:09.024Z,36.55
2019-02-21T12:17:36.002Z,31.27
2019-02-21T12:20:03.196Z,29.87
2019-02-21T12:22:30.101Z,29.67
2019-02-21T12:24:57.315Z,24.95
2019-02-21T12:27:24.221Z,29.57
2019-02-21T12:29:51.154Z,29.83
2019-02-21T12:32:17.881Z,27.73
2019-02-21T12:34:44.446Z,29.40
2019-02-21T12:37:11.442Z,26.87
2019-02-21T12:39:38.249Z,21.90
2019-02-21T12:42:04.864Z,29.10
2019-02-21T12:44:31.610Z,22.82
2019-02-21T12:46:58.529Z,26.77
2019-02-21T12:49:25.655Z,26.43
2019-02-21T12:51:54.280Z,26.68
2019-02-21T12:54:20.895Z,21.53
2019-02-21T12:56:47.562Z,23.80
2019-02-21T12:59:15.443Z,25.97
2019-02-21T13:01:42.108Z,19.67
2019-02-21T13:04:09.003Z,20.03
2019-02-21T13:06:35.652Z,18.57
2019-02-21T13:09:02.602Z,17.00
2019-02-21T13:11:29.297Z,21.13
2019-02-21T13:13:55.935Z,20.77
2019-02-21T13:16:24.108Z,17.77
2019-02-21T13:18:50.787Z,17.33
2019-02-21T13:21:17.417Z,14.90
2019-02-21T13:23:44.059Z,16.00
2019-02-21T13:26:11.818Z,17.17
2019-02-21T13:28:38.943Z,15.38
2019-02-21T13:31:05.985Z,18.17
2019-02-21T13:33:33.104Z,17.10
2019-02-21T13:36:00.096Z,16.10
2019-02-21T13:38:27.315Z,19.67
2019-02-21T13:40:53.938Z,19.00
2019-02-21T13:43:20.556Z,15.10
2019-02-21T13:45:47.322Z,16.73
2019-02-21T13:48:14.258Z,20.03
2019-02-21T13:50:41.339Z,22.90
2019-02-21T13:53:08.267Z,19.07
2019-02-21T13:55:35.432Z,21.57
2019-02-21T13:58:02.531Z,23.10
2019-02-21T14:00:29.413Z,24.77
2019-02-21T14:02:58.055Z,20.70
2019-02-21T14:05:24.694Z,22.70
2019-02-21T14:07:51.350Z,17.20
2019-02-21T14:10:18.296Z,16.50
2019-02-21T14:12:45.615Z,16.52
2019-02-21T14:15:12.326Z,16.77
2019-02-21T14:17:39.229Z,17.47
2019-02-21T14:20:06.161Z,14.38
2019-02-21T14:22:32.858Z,16.40
2019-02-21T14:24:59.481Z,17.03
2019-02-21T14:27:26.311Z,16.33
2019-02-21T14:29:52.929Z,12.23
2019-02-21T14:32:20.139Z,16.20
2019-02-21T14:34:46.698Z,18.92
2019-02-21T14:37:13.361Z,14.27
2019-02-21T14:39:40.636Z,17.65
2019-02-21T14:42:07.810Z,20.73
2019-02-21T14:44:34.662Z,15.83
2019-02-21T14:47:07.999Z,13.30
2019-02-21T14:49:35.030Z,13.70
2019-02-21T14:52:02.986Z,13.22
2019-02-21T14:54:30.265Z,19.43
2019-02-21T14:56:56.854Z,17.07
2019-02-21T14:59:23.601Z,16.70
2019-02-21T15:01:50.193Z,17.20
2019-02-21T15:04:16.888Z,12.40
2019-02-21T15:06:43.846Z,13.63
2019-02-21T15:09:10.967Z,11.45
2019-02-21T15:11:37.901Z,19.77
2019-02-21T15:14:04.960Z,20.37
2019-02-21T15:16:33.028Z,13.18
2019-02-21T15:18:59.812Z,13.37
2019-02-21T15:21:27.517Z,13.63
2019-02-21T15:23:54.435Z,22.70
2019-02-21T15:26:23.266Z,14.23
2019-02-21T15:28:51.892Z,14.07
2019-02-21T15:31:19.542Z,15.78
2019-02-21T15:33:51.010Z,11.38
2019-02-21T15:36:18.495Z,9.70
2019-02-21T15:38:49.455Z,15.77
2019-02-21T15:41:17.420Z,12.43
2019-02-21T15:43:50.156Z,14.87
2019-02-21T15:46:17.513Z,12.65
2019-02-21T15:48:45.249Z,10.33
2019-02-21T15:51:14.007Z,11.63
2019-02-21T15:53:41.705Z,13.00
2019-02-21T15:56:11.316Z,13.88
2019-02-21T15:58:38.670Z,15.10
2019-02-21T16:01:09.378Z,14.27
2019-02-21T16:03:35.735Z,15.37
2019-02-21T16:06:03.648Z,12.75
2019-02-21T16:08:30.307Z,15.90
2019-02-21T16:10:56.954Z,16.10
2019-02-21T16:13:23.926Z,12.33
2019-02-21T16:15:51.001Z,12.80
2019-02-21T16:18:17.931Z,17.20
2019-02-21T16:20:44.851Z,14.60
2019-02-21T16:23:11.621Z,15.00
2019-02-21T16:25:38.261Z,16.45
2019-02-21T16:28:05.161Z,13.73
2019-02-21T16:30:31.776Z,17.20
2019-02-21T16:32:58.739Z,10.50
2019-02-21T16:35:27.165Z,16.20
2019-02-21T16:37:53.896Z,16.03
2019-02-21T16:40:21.138Z,15.37
2019-02-21T16:42:47.906Z,21.13
2019-02-21T16:45:14.826Z,17.43
2019-02-21T16:47:42.007Z,18.15
2019-02-21T16:50:08.746Z,15.65
2019-02-21T16:52:36.844Z,18.97
2019-02-21T16:55:04.389Z,16.45
2019-02-21T16:57:31.155Z,18.53
2019-02-21T16:59:57.727Z,19.43
2019-02-21T17:02:24.494Z,19.33
2019-02-21T17:04:51.197Z,22.50
2019-02-21T17:07:20.178Z,20.43
2019-02-21T17:09:47.352Z,20.47
2019-02-21T17:12:14.523Z,21.17
2019-02-21T17:14:41.290Z,16.13
2019-02-21T17:17:08.228Z,18.15
2019-02-21T17:19:34.830Z,24.13
2019-02-21T17:22:01.524Z,22.17
2019-02-21T17:24:28.383Z,18.80
2019-02-21T17:26:55.055Z,16.43
2019-02-21T17:29:21.929Z,16.20
2019-02-21T17:31:48.829Z,15.88
2019-02-21T17:34:15.722Z,15.37
2019-02-21T17:36:42.987Z,18.98
2019-02-21T17:39:09.857Z,22.23
2019-02-21T17:41:37.872Z,19.40
2019-02-21T17:44:05.084Z,20.57
2019-02-21T17:46:31.889Z,15.70
2019-02-21T17:48:58.821Z,19.37
2019-02-21T17:51:25.440Z,18.60
2019-02-21T17:53:52.861Z,20.97
2019-02-21T17:56:19.873Z,17.47
2019-02-21T17:58:47.046Z,19.37
2019-02-21T18:01:13.965Z,21.83
2019-02-21T18:03:41.211Z,19.23
2019-02-21T18:06:07.991Z,19.07
2019-02-21T18:08:35.292Z,17.05
2019-02-21T18:11:02.213Z,20.23
2019-02-21T18:13:30.082Z,21.97
2019-02-21T18:15:56.697Z,22.87
2019-02-21T18:18:23.523Z,20.05
2019-02-21T18:20:50.396Z,21.83
2019-02-21T18:23:17.481Z,21.80
2019-02-21T18:25:44.416Z,20.80
2019-02-21T18:28:11.326Z,24.10
2019-02-21T18:30:38.346Z,21.12
2019-02-21T18:33:05.803Z,28.97
2019-02-21T18:35:33.594Z,21.77
2019-02-21T18:38:00.413Z,21.37
2019-02-21T18:40:28.824Z,23.63
2019-02-21T18:42:55.466Z,29.60
2019-02-21T18:45:22.190Z,30.50
2019-02-21T18:47:48.848Z,26.67
2019-02-21T18:50:15.881Z,25.43
2019-02-21T18:52:42.876Z,23.23
2019-02-21T18:55:11.666Z,21.60
2019-02-21T18:57:38.610Z,19.82
2019-02-21T19:00:06.197Z,22.87
2019-02-21T19:02:32.863Z,25.53
2019-02-21T19:04:59.761Z,19.00
2019-02-21T19:07:26.381Z,18.77
2019-02-21T19:09:53.024Z,13.93
2019-02-21T19:12:20.163Z,12.47
2019-02-21T19:14:47.102Z,11.90
2019-02-21T19:17:14.174Z,7.00
2019-02-21T19:19:41.114Z,7.57
2019-02-21T19:22:08.236Z,8.37
2019-02-21T19:24:37.048Z,12.68
2019-02-21T19:27:04.086Z,7.90
2019-02-21T19:29:30.762Z,6.63
2019-02-21T19:31:57.538Z,7.93
2019-02-21T19:34:24.558Z,7.00
2019-02-21T19:36:51.351Z,12.60
2019-02-21T19:39:18.503Z,8.20
2019-02-21T19:41:45.664Z,6.87
2019-02-21T19:44:12.648Z,9.38
2019-02-21T19:46:39.347Z,11.90
2019-02-21T19:49:06.722Z,11.20
2019-02-21T19:51:33.519Z,16.00
2019-02-21T19:54:00.397Z,18.47
2019-02-21T19:56:27.029Z,16.00
2019-02-21T19:58:53.897Z,15.33
2019-02-21T20:01:20.834Z,15.28
2019-02-21T20:03:47.727Z,11.73
2019-02-21T20:06:14.609Z,14.13
2019-02-21T20:08:41.322Z,14.70
2019-02-21T20:11:07.960Z,14.90
2019-02-21T20:13:34.618Z,14.27
2019-02-21T20:16:01.650Z,17.30
2019-02-21T20:18:28.309Z,11.93
2019-02-21T20:20:57.236Z,16.67
2019-02-21T20:23:24.212Z,14.00
2019-02-21T20:25:51.155Z,14.73
2019-02-21T20:28:17.760Z,11.40
2019-02-21T20:30:46.826Z,19.03
2019-02-21T20:33:14.070Z,15.90
2019-02-21T20:35:40.845Z,12.35
2019-02-21T20:38:07.578Z,14.33
2019-02-21T20:40:34.648Z,12.97
2019-02-21T20:43:01.353Z,14.17
2019-02-21T20:45:28.025Z,16.97
2019-02-21T20:47:54.931Z,11.57
2019-02-21T20:50:21.596Z,16.12
2019-02-21T20:52:48.315Z,12.83
2019-02-21T20:55:15.251Z,16.23
2019-02-21T20:57:42.555Z,13.73
2019-02-21T21:00:09.894Z,16.47
2019-02-21T21:02:36.531Z,18.53
2019-02-21T21:05:03.333Z,15.97
2019-02-21T21:07:30.285Z,15.80
2019-02-21T21:09:57.453Z,11.95
2019-02-21T21:12:24.521Z,14.03
2019-02-21T21:14:51.506Z,12.43
2019-02-21T21:17:18.404Z,13.93
2019-02-21T21:19:45.359Z,8.70
2019-02-21T21:22:11.954Z,14.73
2019-02-21T21:24:40.133Z,12.20
2019-02-21T21:27:06.799Z,10.13
2019-02-21T21:29:33.698Z,11.73
2019-02-21T21:32:00.685Z,11.73
2019-02-21T21:34:27.875Z,11.97
2019-02-21T21:36:54.802Z,10.67
2019-02-21T21:39:21.849Z,11.53
2019-02-21T21:41:48.780Z,13.77
2019-02-21T21:44:15.422Z,13.50
2019-02-21T21:46:42.071Z,14.10
2019-02-21T21:49:10.144Z,13.10
2019-02-21T21:51:36.948Z,14.20
2019-02-21T21:54:03.950Z,14.90
2019-02-21T21:56:31.033Z,13.87
2019-02-21T21:58:58.281Z,17.00
2019-02-21T22:01:24.964Z,17.27
2019-02-21T22:03:51.578Z,17.60
2019-02-21T22:06:18.680Z,11.93
2019-02-21T22:08:45.309Z,15.77
2019-02-21T22:11:12.402Z,21.10
2019-02-21T22:13:40.449Z,26.57
2019-02-21T22:16:07.115Z,29.57
2019-02-21T22:18:33.736Z,20.27
2019-02-21T22:21:00.366Z,23.73
2019-02-21T22:23:27.231Z,20.73
2019-02-21T22:25:53.886Z,21.50
2019-02-21T22:28:20.526Z,24.23
2019-02-21T22:30:48.056Z,17.13
2019-02-21T22:33:14.671Z,18.75
2019-02-21T22:35:41.439Z,22.23
2019-02-21T22:38:08.372Z,19.70
2019-02-21T22:40:35.022Z,20.33
2019-02-21T22:43:01.667Z,18.73
2019-02-21T22:45:29.201Z,19.98
2019-02-21T22:47:55.800Z,15.93
2019-02-21T22:50:23.049Z,20.10
2019-02-21T22:52:49.702Z,16.53
2019-02-21T22:55:16.947Z,14.60
2019-02-21T22:57:43.969Z,16.93
2019-02-21T23:00:11.057Z,15.17
2019-02-21T23:02:37.686Z,15.00
2019-02-21T23:05:04.366Z,11.27
2019-02-21T23:07:30.983Z,13.07
2019-02-21T23:09:57.940Z,16.57
2019-02-21T23:12:24.858Z,14.87
2019-02-21T23:14:52.023Z,14.80
2019-02-21T23:17:19.190Z,12.75
2019-02-21T23:19:45.948Z,13.00
2019-02-21T23:22:12.909Z,11.60
2019-02-21T23:24:41.304Z,11.72
2019-02-21T23:27:07.956Z,9.53
2019-02-21T23:29:34.832Z,9.45
2019-02-21T23:32:03.315Z,12.03
2019-02-21T23:34:30.145Z,10.83
2019-02-21T23:36:57.005Z,11.35
2019-02-21T23:39:23.617Z,15.73
2019-02-21T23:41:50.566Z,14.77
2019-02-21T23:44:17.426Z,12.35
2019-02-21T23:46:45.391Z,12.73
2019-02-21T23:49:13.905Z,11.53
2019-02-21T23:51:41.476Z,12.13
2019-02-21T23:54:08.212Z,12.90
2019-02-21T23:56:34.834Z,13.40
2019-02-21T23:59:01.510Z,13.23
